Aviation Digital Data Service (ADDS)

Output produced by METARs form (0856 UTC 26 January 2020)
found at http://www.aviationweather.gov/metar/data/
 
METAR text: SUMU 260800Z 00000KT CAVOK 21/12 Q1007 NOSIG
Conditions at: SUMU (CARRASCO (CIV/MI, UY) observed 0800 UTC 26 January 2020
Temperature: 21.0°C (70°F)
Dewpoint: 12.0°C (54°F) [RH = 56%]
Pressure (altimeter): 29.73 inches Hg (1007.0 mb)
Winds: calm
Visibility: 6 or more miles (10+ km)
Ceiling: ceiling and visibility are OK
Clouds: unknown
Weather: no significant weather observed at this time

METAR text: SUMU 260700Z 03003KT CAVOK 21/12 Q1006 NOSIG
Conditions at: SUMU (CARRASCO (CIV/MI, UY) observed 0700 UTC 26 January 2020
Temperature: 21.0°C (70°F)
Dewpoint: 12.0°C (54°F) [RH = 56%]
Pressure (altimeter): 29.70 inches Hg (1006.0 mb)
Winds: from the NNE (30 degrees) at 3 MPH (3 knots; 1.5 m/s)
Visibility: 6 or more miles (10+ km)
Ceiling: ceiling and visibility are OK
Clouds: unknown
Weather: no significant weather observed at this time

METAR text: SUMU 260600Z 03005KT CAVOK 21/12 Q1006 NOSIG
Conditions at: SUMU (CARRASCO (CIV/MI, UY) observed 0600 UTC 26 January 2020
Temperature: 21.0°C (70°F)
Dewpoint: 12.0°C (54°F) [RH = 56%]
Pressure (altimeter): 29.70 inches Hg (1006.0 mb)
Winds: from the NNE (30 degrees) at 6 MPH (5 knots; 2.6 m/s)
Visibility: 6 or more miles (10+ km)
Ceiling: ceiling and visibility are OK
Clouds: unknown
Weather: no significant weather observed at this time

METAR text: SUMU 260500Z 02004KT CAVOK 21/11 Q1007 NOSIG
Conditions at: SUMU (CARRASCO (CIV/MI, UY) observed 0500 UTC 26 January 2020
Temperature: 21.0°C (70°F)
Dewpoint: 11.0°C (52°F) [RH = 53%]
Pressure (altimeter): 29.73 inches Hg (1007.0 mb)
Winds: from the NNE (20 degrees) at 5 MPH (4 knots; 2.1 m/s)
Visibility: 6 or more miles (10+ km)
Ceiling: ceiling and visibility are OK
Clouds: unknown
Weather: no significant weather observed at this time

METAR text: SUMU 260400Z 04005KT CAVOK 22/10 Q1007 NOSIG
Conditions at: SUMU (CARRASCO (CIV/MI, UY) observed 0400 UTC 26 January 2020
Temperature: 22.0°C (72°F)
Dewpoint: 10.0°C (50°F) [RH = 46%]
Pressure (altimeter): 29.73 inches Hg (1007.0 mb)
Winds: from the NE (40 degrees) at 6 MPH (5 knots; 2.6 m/s)
Visibility: 6 or more miles (10+ km)
Ceiling: ceiling and visibility are OK
Clouds: unknown
Weather: no significant weather observed at this time

METAR text: SUMU 260300Z 05007KT CAVOK 22/10 Q1007 NOSIG
Conditions at: SUMU (CARRASCO (CIV/MI, UY) observed 0300 UTC 26 January 2020
Temperature: 22.0°C (72°F)
Dewpoint: 10.0°C (50°F) [RH = 46%]
Pressure (altimeter): 29.73 inches Hg (1007.0 mb)
Winds: from the NE (50 degrees) at 8 MPH (7 knots; 3.6 m/s)
Visibility: 6 or more miles (10+ km)
Ceiling: ceiling and visibility are OK
Clouds: unknown
Weather: no significant weather observed at this time

METAR text: SUMU 260200Z 05007KT CAVOK 21/11 Q1007 NOSIG
Conditions at: SUMU (CARRASCO (CIV/MI, UY) observed 0200 UTC 26 January 2020
Temperature: 21.0°C (70°F)
Dewpoint: 11.0°C (52°F) [RH = 53%]
Pressure (altimeter): 29.73 inches Hg (1007.0 mb)
Winds: from the NE (50 degrees) at 8 MPH (7 knots; 3.6 m/s)
Visibility: 6 or more miles (10+ km)
Ceiling: ceiling and visibility are OK
Clouds: unknown
Weather: no significant weather observed at this time

METAR text: SUMU 260100Z 09008KT CAVOK 22/12 Q1007 NOSIG
Conditions at: SUMU (CARRASCO (CIV/MI, UY) observed 0100 UTC 26 January 2020
Temperature: 22.0°C (72°F)
Dewpoint: 12.0°C (54°F) [RH = 53%]
Pressure (altimeter): 29.73 inches Hg (1007.0 mb)
Winds: from the E (90 degrees) at 9 MPH (8 knots; 4.1 m/s)
Visibility: 6 or more miles (10+ km)
Ceiling: ceiling and visibility are OK
Clouds: unknown
Weather: no significant weather observed at this time

METAR text: SUMU 260000Z 10008KT CAVOK 22/14 Q1007 NOSIG
Conditions at: SUMU (CARRASCO (CIV/MI, UY) observed 0000 UTC 26 January 2020
Temperature: 22.0°C (72°F)
Dewpoint: 14.0°C (57°F) [RH = 60%]
Pressure (altimeter): 29.73 inches Hg (1007.0 mb)
Winds: from the E (100 degrees) at 9 MPH (8 knots; 4.1 m/s)
Visibility: 6 or more miles (10+ km)
Ceiling: ceiling and visibility are OK
Clouds: unknown
Weather: no significant weather observed at this time

METAR text: SUMU 252300Z 12009KT CAVOK 22/15 Q1007 NOSIG
Conditions at: SUMU (CARRASCO (CIV/MI, UY) observed 2300 UTC 25 January 2020
Temperature: 22.0°C (72°F)
Dewpoint: 15.0°C (59°F) [RH = 65%]
Pressure (altimeter): 29.73 inches Hg (1007.0 mb)
Winds: from the ESE (120 degrees) at 10 MPH (9 knots; 4.6 m/s)
Visibility: 6 or more miles (10+ km)
Ceiling: ceiling and visibility are OK
Clouds: unknown
Weather: no significant weather observed at this time

METAR text: SUMU 252200Z 12010KT CAVOK 24/14 Q1006 NOSIG
Conditions at: SUMU (CARRASCO (CIV/MI, UY) observed 2200 UTC 25 January 2020
Temperature: 24.0°C (75°F)
Dewpoint: 14.0°C (57°F) [RH = 54%]
Pressure (altimeter): 29.70 inches Hg (1006.0 mb)
Winds: from the ESE (120 degrees) at 12 MPH (10 knots; 5.1 m/s)
Visibility: 6 or more miles (10+ km)
Ceiling: ceiling and visibility are OK
Clouds: unknown
Weather: no significant weather observed at this time

METAR text: SUMU 252100Z 13011KT CAVOK 25/15 Q1006 NOSIG
Conditions at: SUMU (CARRASCO (CIV/MI, UY) observed 2100 UTC 25 January 2020
Temperature: 25.0°C (77°F)
Dewpoint: 15.0°C (59°F) [RH = 54%]
Pressure (altimeter): 29.70 inches Hg (1006.0 mb)
Winds: from the SE (130 degrees) at 13 MPH (11 knots; 5.7 m/s)
Visibility: 6 or more miles (10+ km)
Ceiling: ceiling and visibility are OK
Clouds: unknown
Weather: no significant weather observed at this time

METAR text: SUMU 252000Z 15010KT 9999 FEW033 26/17 Q1006 NOSIG
Conditions at: SUMU (CARRASCO (CIV/MI, UY) observed 2000 UTC 25 January 2020
Temperature: 26.0°C (79°F)
Dewpoint: 17.0°C (63°F) [RH = 58%]
Pressure (altimeter): 29.70 inches Hg (1006.0 mb)
Winds: from the SSE (150 degrees) at 12 MPH (10 knots; 5.1 m/s)
Visibility: 6 or more miles (10+ km)
Ceiling: at least 12,000 feet AGL
Clouds: few clouds at 3300 feet AGL
Weather: no significant weather observed at this time

METAR text: SUMU 251900Z 17012KT 9999 FEW033 27/16 Q1006 NOSIG
Conditions at: SUMU (CARRASCO (CIV/MI, UY) observed 1900 UTC 25 January 2020
Temperature: 27.0°C (81°F)
Dewpoint: 16.0°C (61°F) [RH = 51%]
Pressure (altimeter): 29.70 inches Hg (1006.0 mb)
Winds: from the S (170 degrees) at 14 MPH (12 knots; 6.2 m/s)
Visibility: 6 or more miles (10+ km)
Ceiling: at least 12,000 feet AGL
Clouds: few clouds at 3300 feet AGL
Weather: no significant weather observed at this time

METAR text: SUMU 251800Z 17011KT 9999 FEW033 28/16 Q1007 NOSIG
Conditions at: SUMU (CARRASCO (CIV/MI, UY) observed 1800 UTC 25 January 2020
Temperature: 28.0°C (82°F)
Dewpoint: 16.0°C (61°F) [RH = 48%]
Pressure (altimeter): 29.73 inches Hg (1007.0 mb)
Winds: from the S (170 degrees) at 13 MPH (11 knots; 5.7 m/s)
Visibility: 6 or more miles (10+ km)
Ceiling: at least 12,000 feet AGL
Clouds: few clouds at 3300 feet AGL
Weather: no significant weather observed at this time

METAR text: SUMU 251700Z 18010KT 9999 SCT033 FEW040TCU 28/22 Q1006 NOSIG
Conditions at: SUMU (CARRASCO (CIV/MI, UY) observed 1700 UTC 25 January 2020
Temperature: 28.0°C (82°F)
Dewpoint: 22.0°C (72°F) [RH = 70%]
Pressure (altimeter): 29.70 inches Hg (1006.0 mb)
Winds: from the S (180 degrees) at 12 MPH (10 knots; 5.1 m/s)
Visibility: 6 or more miles (10+ km)
Ceiling: at least 12,000 feet AGL
Clouds: scattered clouds at 3300 feet AGL
few clouds at 4000 feet AGL
Weather: no significant weather observed at this time

METAR text: SUMU 251600Z 22012KT 9999 FEW033 FEW040TCU SCT200 30/21 Q1006NOSIG
Conditions at: SUMU (CARRASCO (CIV/MI, UY) observed 1600 UTC 25 January 2020
Temperature: 30.0°C (86°F)
Dewpoint: 21.0°C (70°F) [RH = 59%]
Pressure (altimeter): missing
Winds: from the SW (220 degrees) at 14 MPH (12 knots; 6.2 m/s)
Visibility: 6 or more miles (10+ km)
Ceiling: at least 12,000 feet AGL
Clouds: few clouds at 3300 feet AGL
few clouds at 4000 feet AGL
scattered clouds at 20000 feet AGL
Weather: no significant weather observed at this time

METAR text: SUMU 251500Z 25009KT 9999 FEW033 SCT200 30/20 Q1006 NOSIG
Conditions at: SUMU (CARRASCO (CIV/MI, UY) observed 1500 UTC 25 January 2020
Temperature: 30.0°C (86°F)
Dewpoint: 20.0°C (68°F) [RH = 55%]
Pressure (altimeter): 29.70 inches Hg (1006.0 mb)
Winds: from the WSW (250 degrees) at 10 MPH (9 knots; 4.6 m/s)
Visibility: 6 or more miles (10+ km)
Ceiling: at least 12,000 feet AGL
Clouds: few clouds at 3300 feet AGL
scattered clouds at 20000 feet AGL
Weather: no significant weather observed at this time

METAR text: SUMU 251400Z 24010KT 9999 FEW030 BKN200 29/20 Q1006 NOSIG
Conditions at: SUMU (CARRASCO (CIV/MI, UY) observed 1400 UTC 25 January 2020
Temperature: 29.0°C (84°F)
Dewpoint: 20.0°C (68°F) [RH = 58%]
Pressure (altimeter): 29.70 inches Hg (1006.0 mb)
Winds: from the WSW (240 degrees) at 12 MPH (10 knots; 5.1 m/s)
Visibility: 6 or more miles (10+ km)
Ceiling: 20000 feet AGL
Clouds: few clouds at 3000 feet AGL
broken clouds at 20000 feet AGL
Weather: no significant weather observed at this time

METAR text: SUMU 251300Z 280010KT CAVOK 28/21 Q1006 NOSIG
Conditions at: SUMU (CARRASCO (CIV/MI, UY) observed 1300 UTC 25 January 2020
Temperature: 28.0°C (82°F)
Dewpoint: 21.0°C (70°F) [RH = 66%]
Pressure (altimeter): 29.70 inches Hg (1006.0 mb)
Winds: from the W (280 degrees) at 12 MPH (10 knots; 5.1 m/s)
Visibility: 6 or more miles (10+ km)
Ceiling: ceiling and visibility are OK
Clouds: unknown
Weather: no significant weather observed at this time

METAR text: SUMU 251200Z 30010KT CAVOK 26/20 Q1006 NOSIG
Conditions at: SUMU (CARRASCO (CIV/MI, UY) observed 1200 UTC 25 January 2020
Temperature: 26.0°C (79°F)
Dewpoint: 20.0°C (68°F) [RH = 70%]
Pressure (altimeter): 29.70 inches Hg (1006.0 mb)
Winds: from the WNW (300 degrees) at 12 MPH (10 knots; 5.1 m/s)
Visibility: 6 or more miles (10+ km)
Ceiling: ceiling and visibility are OK
Clouds: unknown
Weather: no significant weather observed at this time

METAR text: SUMU 251100Z 32007KT 9999 FEW030 SCT070 BKN200 24/18 Q1006NOSIG
Conditions at: SUMU (CARRASCO (CIV/MI, UY) observed 1100 UTC 25 January 2020
Temperature: 24.0°C (75°F)
Dewpoint: 18.0°C (64°F) [RH = 69%]
Pressure (altimeter): missing
Winds: from the NW (320 degrees) at 8 MPH (7 knots; 3.6 m/s)
Visibility: 6 or more miles (10+ km)
Ceiling: 20000 feet AGL
Clouds: few clouds at 3000 feet AGL
scattered clouds at 7000 feet AGL
broken clouds at 20000 feet AGL
Weather: no significant weather observed at this time

METAR text: SUMU 251000Z 34005KT 9999 FEW026 SCT070 BKN200 22/17 Q1006NOSIG
Conditions at: SUMU (CARRASCO (CIV/MI, UY) observed 1000 UTC 25 January 2020
Temperature: 22.0°C (72°F)
Dewpoint: 17.0°C (63°F) [RH = 73%]
Pressure (altimeter): missing
Winds: from the NNW (340 degrees) at 6 MPH (5 knots; 2.6 m/s)
Visibility: 6 or more miles (10+ km)
Ceiling: 20000 feet AGL
Clouds: few clouds at 2600 feet AGL
scattered clouds at 7000 feet AGL
broken clouds at 20000 feet AGL
Weather: no significant weather observed at this time

METAR text: SUMU 250900Z 35004KT 9999 FEW026 SCT070 BKN200 21/17 Q1006NOSIG
Conditions at: SUMU (CARRASCO (CIV/MI, UY) observed 0900 UTC 25 January 2020
Temperature: 21.0°C (70°F)
Dewpoint: 17.0°C (63°F) [RH = 78%]
Pressure (altimeter): missing
Winds: from the N (350 degrees) at 5 MPH (4 knots; 2.1 m/s)
Visibility: 6 or more miles (10+ km)
Ceiling: 20000 feet AGL
Clouds: few clouds at 2600 feet AGL
scattered clouds at 7000 feet AGL
broken clouds at 20000 feet AGL
Weather: no significant weather observed at this time

METAR text: SUMU 250800Z 34005KT CAVOK 21/16 Q1006 NOSIG
Conditions at: SUMU (CARRASCO (CIV/MI, UY) observed 0800 UTC 25 January 2020
Temperature: 21.0°C (70°F)
Dewpoint: 16.0°C (61°F) [RH = 73%]
Pressure (altimeter): 29.70 inches Hg (1006.0 mb)
Winds: from the NNW (340 degrees) at 6 MPH (5 knots; 2.6 m/s)
Visibility: 6 or more miles (10+ km)
Ceiling: ceiling and visibility are OK
Clouds: unknown
Weather: no significant weather observed at this time

METAR text: SUMU 250700Z 35005KT CAVOK 22/16 Q1006 NOSIG
Conditions at: SUMU (CARRASCO (CIV/MI, UY) observed 0700 UTC 25 January 2020
Temperature: 22.0°C (72°F)
Dewpoint: 16.0°C (61°F) [RH = 69%]
Pressure (altimeter): 29.70 inches Hg (1006.0 mb)
Winds: from the N (350 degrees) at 6 MPH (5 knots; 2.6 m/s)
Visibility: 6 or more miles (10+ km)
Ceiling: ceiling and visibility are OK
Clouds: unknown
Weather: no significant weather observed at this time

METAR text: SUMU 250600Z 24003KT CAVOK 22/16 Q1006 NOSIG
Conditions at: SUMU (CARRASCO (CIV/MI, UY) observed 0600 UTC 25 January 2020
Temperature: 22.0°C (72°F)
Dewpoint: 16.0°C (61°F) [RH = 69%]
Pressure (altimeter): 29.70 inches Hg (1006.0 mb)
Winds: from the WSW (240 degrees) at 3 MPH (3 knots; 1.5 m/s)
Visibility: 6 or more miles (10+ km)
Ceiling: ceiling and visibility are OK
Clouds: unknown
Weather: no significant weather observed at this time

METAR text: SUMU 250500Z 36007KT CAVOK 22/16 Q1006 NOSIG
Conditions at: SUMU (CARRASCO (CIV/MI, UY) observed 0500 UTC 25 January 2020
Temperature: 22.0°C (72°F)
Dewpoint: 16.0°C (61°F) [RH = 69%]
Pressure (altimeter): 29.70 inches Hg (1006.0 mb)
Winds: from the N (360 degrees) at 8 MPH (7 knots; 3.6 m/s)
Visibility: 6 or more miles (10+ km)
Ceiling: ceiling and visibility are OK
Clouds: unknown
Weather: no significant weather observed at this time

METAR text: SUMU 250400Z 01005KT CAVOK 21/16 Q1007 NOSIG
Conditions at: SUMU (CARRASCO (CIV/MI, UY) observed 0400 UTC 25 January 2020
Temperature: 21.0°C (70°F)
Dewpoint: 16.0°C (61°F) [RH = 73%]
Pressure (altimeter): 29.73 inches Hg (1007.0 mb)
Winds: from the N (10 degrees) at 6 MPH (5 knots; 2.6 m/s)
Visibility: 6 or more miles (10+ km)
Ceiling: ceiling and visibility are OK
Clouds: unknown
Weather: no significant weather observed at this time

METAR text: SUMU 250300Z 26004KT CAVOK 21/16 Q1008 NOSIG
Conditions at: SUMU (CARRASCO (CIV/MI, UY) observed 0300 UTC 25 January 2020
Temperature: 21.0°C (70°F)
Dewpoint: 16.0°C (61°F) [RH = 73%]
Pressure (altimeter): 29.76 inches Hg (1008.0 mb)
Winds: from the W (260 degrees) at 5 MPH (4 knots; 2.1 m/s)
Visibility: 6 or more miles (10+ km)
Ceiling: ceiling and visibility are OK
Clouds: unknown
Weather: no significant weather observed at this time

METAR text: SUMU 250200Z 03006KT CAVOK 23/15 Q1007 NOSIG
Conditions at: SUMU (CARRASCO (CIV/MI, UY) observed 0200 UTC 25 January 2020
Temperature: 23.0°C (73°F)
Dewpoint: 15.0°C (59°F) [RH = 61%]
Pressure (altimeter): 29.73 inches Hg (1007.0 mb)
Winds: from the NNE (30 degrees) at 7 MPH (6 knots; 3.1 m/s)
Visibility: 6 or more miles (10+ km)
Ceiling: ceiling and visibility are OK
Clouds: unknown
Weather: no significant weather observed at this time

METAR text: SUMU 250100Z 03003KT CAVOK 23/16 Q1008 NOSIG
Conditions at: SUMU (CARRASCO (CIV/MI, UY) observed 0100 UTC 25 January 2020
Temperature: 23.0°C (73°F)
Dewpoint: 16.0°C (61°F) [RH = 65%]
Pressure (altimeter): 29.76 inches Hg (1008.0 mb)
Winds: from the NNE (30 degrees) at 3 MPH (3 knots; 1.5 m/s)
Visibility: 6 or more miles (10+ km)
Ceiling: ceiling and visibility are OK
Clouds: unknown
Weather: no significant weather observed at this time

METAR text: SUMU 250000Z 09005KT CAVOK 24/17 Q1008 NOSIG
Conditions at: SUMU (CARRASCO (CIV/MI, UY) observed 0000 UTC 25 January 2020
Temperature: 24.0°C (75°F)
Dewpoint: 17.0°C (63°F) [RH = 65%]
Pressure (altimeter): 29.76 inches Hg (1008.0 mb)
Winds: from the E (90 degrees) at 6 MPH (5 knots; 2.6 m/s)
Visibility: 6 or more miles (10+ km)
Ceiling: ceiling and visibility are OK
Clouds: unknown
Weather: no significant weather observed at this time

METAR text: SUMU 242300Z 13006KT CAVOK 25/18 Q1008 NOSIG
Conditions at: SUMU (CARRASCO (CIV/MI, UY) observed 2300 UTC 24 January 2020
Temperature: 25.0°C (77°F)
Dewpoint: 18.0°C (64°F) [RH = 65%]
Pressure (altimeter): 29.76 inches Hg (1008.0 mb)
Winds: from the SE (130 degrees) at 7 MPH (6 knots; 3.1 m/s)
Visibility: 6 or more miles (10+ km)
Ceiling: ceiling and visibility are OK
Clouds: unknown
Weather: no significant weather observed at this time

METAR text: SUMU 242200Z 13005KT CAVOK 28/17 Q1008 NOSIG
Conditions at: SUMU (CARRASCO (CIV/MI, UY) observed 2200 UTC 24 January 2020
Temperature: 28.0°C (82°F)
Dewpoint: 17.0°C (63°F) [RH = 51%]
Pressure (altimeter): 29.76 inches Hg (1008.0 mb)
Winds: from the SE (130 degrees) at 6 MPH (5 knots; 2.6 m/s)
Visibility: 6 or more miles (10+ km)
Ceiling: ceiling and visibility are OK
Clouds: unknown
Weather: no significant weather observed at this time

METAR text: SUMU 242100Z 19004KT CAVOK 29/17 Q1008 NOSIG
Conditions at: SUMU (CARRASCO (CIV/MI, UY) observed 2100 UTC 24 January 2020
Temperature: 29.0°C (84°F)
Dewpoint: 17.0°C (63°F) [RH = 48%]
Pressure (altimeter): 29.76 inches Hg (1008.0 mb)
Winds: from the S (190 degrees) at 5 MPH (4 knots; 2.1 m/s)
Visibility: 6 or more miles (10+ km)
Ceiling: ceiling and visibility are OK
Clouds: unknown
Weather: no significant weather observed at this time

Forecast for: SUMU (CARRASCO (CIV/MI, UY)
Text: TAF SUMU 260530Z 2606/2706 04010KT CAVOK TX32/2618Z TN19/2609Z
Forecast period: 0600 to 1600 UTC 26 January 2020
Forecast type: FROM: standard forecast or significant change
Winds: from the NE (40 degrees) at 12 MPH (10 knots; 5.1 m/s)
Visibility: 6 or more miles 10+ km)
Ceiling: unknown
Clouds: missing
Weather: no significant weather forecast for this period
Text: BECMG 2616/1318 13015KT
Forecast period: 1600 UTC 26 January 2020 to 0600 UTC 27 January 2020
Forecast type: BECOMING: Conditions expected to become as follows by 1800 UTC 13 January 2020
Winds: from the SE (130 degrees) at 17 MPH (15 knots; 7.7 m/s)
Visibility: 6 or more miles 10+ km)
Ceiling: unknown
Clouds: missing
Weather: no significant weather forecast for this period